Pachypooh — FAD8713 — position and weather

sailwx.info

Track history (hours):
 
Tides and Currents Weather Stations Pressure Air Temp Water Temp Dewpoint Dewpoint Depression Visibility Wind Speed Wind Dir Waves Ship Positions

Pachypooh

Last reported at 2017-Oct-22 05:58 UTC. Time now 2017-Nov-19 19:56 UTC.
Position N 37°02' E 013°50'.
Warning: this ship's position is 28 days out of date.

Length 12 m.

Type: Sailing vessel. MMSI: 227439420.

Date/timePositionNaut miles runAvg speedWind from/ knotsBaromVisibWave heightAir tempDewpointWater temp
2017-Oct-22 05:58N 37°02' E 013°50'2 4.9
2017-Oct-22 05:30N 37°01' E 013°52'2 4.9
2017-Oct-22 05:00N 36°59' E 013°55'2 3.0
2017-Oct-22 04:30N 36°58' E 013°55'0 0.5
2017-Oct-22 04:00N 36°58' E 013°55'1 2.3
2017-Oct-22 03:30N 36°59' E 013°57'1 2.2
2017-Oct-22 03:00N 36°59' E 013°58'1 2.4
2017-Oct-22 02:30N 36°59' E 013°60'0 0.1
2017-Oct-22 01:57N 36°59' E 013°60'0 0.8
2017-Oct-22 01:28N 36°59' E 013°59'0 0.7
2017-Oct-22 01:00N 36°60' E 013°59'0 0.6
2017-Oct-22 00:29N 36°60' E 013°59'0 0.3
2017-Oct-21 23:56N 36°60' E 013°58'0 0.4
2017-Oct-21 23:29N 37°00' E 013°58'0 0.2
2017-Oct-21 22:58N 37°00' E 013°58'0 0.3
2017-Oct-21 22:22N 37°00' E 013°58'0 0.3
2017-Oct-21 21:58N 37°00' E 013°58'0 0.2
2017-Oct-21 21:28N 37°00' E 013°58'0 0.5
2017-Oct-21 20:58N 37°01' E 013°58'0 0.4
2017-Oct-21 20:25N 37°01' E 013°58'0 0.5
2017-Oct-21 19:55N 37°01' E 013°58'0 0.5
2017-Oct-21 19:16N 37°01' E 013°57'0 0.5
2017-Oct-21 18:58N 37°01' E 013°57'0 0.5
2017-Oct-21 18:28N 37°01' E 013°57'0 0.5
2017-Oct-21 17:58N 37°01' E 013°57'0 0.5
2017-Oct-21 17:17N 37°02' E 013°56'0 0.7
2017-Oct-21 16:59N 37°02' E 013°56'0 0.8
2017-Oct-21 16:26N 37°02' E 013°56'0 0.9
2017-Oct-21 15:56N 37°02' E 013°55'0 0.1
2017-Oct-21 15:29N 37°02' E 013°55'1 2.8
2017-Oct-21 14:59N 37°01' E 013°57'3 3.1
2017-Oct-21 14:00N 36°60' E 013°60'2 4.0
2017-Oct-21 13:31N 36°59' E 014°02'2 3.9
2017-Oct-21 13:01N 36°58' E 014°04'1 2.0
2017-Oct-21 12:30N 36°57' E 014°05'1 1.3
2017-Oct-21 12:00N 36°57' E 014°04'2 3.6
2017-Oct-21 11:30N 36°56' E 014°06'2 4.4
2017-Oct-21 11:00N 36°54' E 014°08'1 1.9
2017-Oct-21 10:30N 36°54' E 014°08'1 1.9
2017-Oct-21 10:00N 36°53' E 014°09'2 4.3
2017-Oct-21 09:30N 36°52' E 014°11'1 2.8
2017-Oct-21 09:00N 36°51' E 014°13'1 2.1
2017-Oct-21 08:30N 36°50' E 014°14'2 4.7
2017-Oct-21 07:59N 36°48' E 014°16'2 4.2
2017-Oct-21 07:30N 36°47' E 014°18'1 2.4
2017-Oct-21 07:00N 36°46' E 014°19'1 2.7
2017-Oct-21 06:30N 36°46' E 014°21'2 3.9
2017-Oct-21 06:00N 36°44' E 014°22'2 4.5
2017-Oct-21 05:29N 36°43' E 014°25'  
Track history (hours):
 
Tides and Currents Weather Stations Pressure Air Temp Water Temp Dewpoint Dewpoint Depression Visibility Wind Speed Wind Dir Waves Ship Positions

Pachypooh

Last reported at 2017-Oct-22 05:58 UTC. Time now 2017-Nov-19 19:56 UTC.
Position N 37°02' E 013°50'.
Warning: this ship's position is 28 days out of date.

Length 12 m.

Type: Sailing vessel. MMSI: 227439420.

Date/timePositionNaut miles runAvg speedWind from/ knotsBaromVisibWave heightAir tempDewpointWater temp
2017-Oct-22 05:58N 37°02' E 013°50'2 4.9
2017-Oct-22 05:30N 37°01' E 013°52'2 4.9
2017-Oct-22 05:00N 36°59' E 013°55'2 3.0
2017-Oct-22 04:30N 36°58' E 013°55'0 0.5
2017-Oct-22 04:00N 36°58' E 013°55'1 2.3
2017-Oct-22 03:30N 36°59' E 013°57'1 2.2
2017-Oct-22 03:00N 36°59' E 013°58'1 2.4
2017-Oct-22 02:30N 36°59' E 013°60'0 0.1
2017-Oct-22 01:57N 36°59' E 013°60'0 0.8
2017-Oct-22 01:28N 36°59' E 013°59'0 0.7
2017-Oct-22 01:00N 36°60' E 013°59'0 0.6
2017-Oct-22 00:29N 36°60' E 013°59'0 0.3
2017-Oct-21 23:56N 36°60' E 013°58'0 0.4
2017-Oct-21 23:29N 37°00' E 013°58'0 0.2
2017-Oct-21 22:58N 37°00' E 013°58'0 0.3
2017-Oct-21 22:22N 37°00' E 013°58'0 0.3
2017-Oct-21 21:58N 37°00' E 013°58'0 0.2
2017-Oct-21 21:28N 37°00' E 013°58'0 0.5
2017-Oct-21 20:58N 37°01' E 013°58'0 0.4
2017-Oct-21 20:25N 37°01' E 013°58'0 0.5
2017-Oct-21 19:55N 37°01' E 013°58'0 0.5
2017-Oct-21 19:16N 37°01' E 013°57'0 0.5
2017-Oct-21 18:58N 37°01' E 013°57'0 0.5
2017-Oct-21 18:28N 37°01' E 013°57'0 0.5
2017-Oct-21 17:58N 37°01' E 013°57'0 0.5
2017-Oct-21 17:17N 37°02' E 013°56'0 0.7
2017-Oct-21 16:59N 37°02' E 013°56'0 0.8
2017-Oct-21 16:26N 37°02' E 013°56'0 0.9
2017-Oct-21 15:56N 37°02' E 013°55'0 0.1
2017-Oct-21 15:29N 37°02' E 013°55'1 2.8
2017-Oct-21 14:59N 37°01' E 013°57'3 3.1
2017-Oct-21 14:00N 36°60' E 013°60'2 4.0
2017-Oct-21 13:31N 36°59' E 014°02'2 3.9
2017-Oct-21 13:01N 36°58' E 014°04'1 2.0
2017-Oct-21 12:30N 36°57' E 014°05'1 1.3
2017-Oct-21 12:00N 36°57' E 014°04'2 3.6
2017-Oct-21 11:30N 36°56' E 014°06'2 4.4
2017-Oct-21 11:00N 36°54' E 014°08'1 1.9
2017-Oct-21 10:30N 36°54' E 014°08'1 1.9
2017-Oct-21 10:00N 36°53' E 014°09'2 4.3
2017-Oct-21 09:30N 36°52' E 014°11'1 2.8
2017-Oct-21 09:00N 36°51' E 014°13'1 2.1
2017-Oct-21 08:30N 36°50' E 014°14'2 4.7
2017-Oct-21 07:59N 36°48' E 014°16'2 4.2
2017-Oct-21 07:30N 36°47' E 014°18'1 2.4
2017-Oct-21 07:00N 36°46' E 014°19'1 2.7
2017-Oct-21 06:30N 36°46' E 014°21'2 3.9
2017-Oct-21 06:00N 36°44' E 014°22'2 4.5
2017-Oct-21 05:29N 36°43' E 014°25'  

Dump ship's entire track history